Time;durP1;ratioP1;P1;durP2;ratioP2;P2;SDS_P1;SDS_P2;PMS_P1;PMS_P2;Temp;Humidity;BMP_temperature;BMP_pressure;BME280_temperature;BME280_humidity;BME280_pressure;Samples;Min_cycle;Max_cycle;Signal;HPM_P1;HPM_P2
2021/01/15 00:01:22;;;;;;;7.87;3.77;;;0.90;73.30;;;1.41;64.29;97556.63;5024034;28;20346;-43
2021/01/15 00:03:50;;;;;;;7.10;3.73;;;0.90;72.70;;;1.41;64.54;97547.94;5024183;28;20054;-42
2021/01/15 00:06:23;;;;;;;4.90;3.60;;;0.90;73.20;;;1.41;64.10;97547.94;5023861;28;20049;-44
2021/01/15 00:08:53;;;;;;;8.77;3.50;;;0.90;73.00;;;1.39;64.53;97561.13;5038939;28;20245;-44
2021/01/15 00:11:23;;;;;;;5.13;3.53;;;0.90;73.10;;;1.37;63.92;97561.25;5024378;28;20241;-43
2021/01/15 00:13:52;;;;;;;6.17;3.33;;;0.90;73.10;;;1.36;64.32;97562.19;5024153;28;20056;-43
2021/01/15 00:16:28;;;;;;;6.03;3.50;;;0.90;73.30;;;1.34;64.30;97558.00;5024043;28;20058;-41
2021/01/15 00:18:58;;;;;;;6.27;3.40;;;0.80;73.10;;;1.34;64.09;97558.00;5039607;28;20037;-41
2021/01/15 00:21:29;;;;;;;5.40;2.93;;;0.80;73.20;;;1.31;64.56;97552.97;5024179;28;20050;-41
2021/01/15 00:24:04;;;;;;;6.53;3.43;;;0.70;73.10;;;1.27;64.64;97549.72;5024138;28;20048;-43
2021/01/15 00:26:34;;;;;;;5.03;3.30;;;0.70;73.10;;;1.26;63.79;97560.31;5023790;28;20045;-41
2021/01/15 00:29:02;;;;;;;6.97;3.90;;;0.70;73.30;;;1.22;63.97;97558.84;5024119;28;20049;-43
2021/01/15 00:31:37;;;;;;;5.43;3.57;;;0.70;73.30;;;1.20;63.91;97556.31;5038824;28;20086;-44
2021/01/15 00:34:08;;;;;;;4.53;3.13;;;0.70;73.10;;;1.17;64.16;97557.38;5024201;28;20342;-42
2021/01/15 00:36:37;;;;;;;4.43;2.93;;;0.60;73.00;;;1.16;64.47;97555.72;5023455;28;20052;-44
2021/01/15 00:39:08;;;;;;;6.07;3.63;;;0.60;73.00;;;1.16;64.09;97560.94;5023698;28;20042;-42
2021/01/15 00:41:37;;;;;;;4.47;2.63;;;0.60;72.80;;;1.13;64.50;97562.94;5023835;28;20048;-42
2021/01/15 00:44:06;;;;;;;3.63;2.90;;;0.60;72.80;;;1.12;63.94;97563.88;5023395;28;20052;-43
2021/01/15 00:46:34;;;;;;;4.47;2.87;;;0.60;73.00;;;1.09;63.61;97559.69;5023252;28;20042;-44
2021/01/15 00:49:08;;;;;;;4.13;2.47;;;0.50;72.90;;;1.07;64.38;97564.19;5038573;28;20050;-42
2021/01/15 00:51:39;;;;;;;4.07;2.70;;;0.50;73.10;;;1.06;64.61;97575.63;5022374;28;20056;-43
2021/01/15 00:54:07;;;;;;;5.33;3.10;;;0.60;72.80;;;1.07;64.10;97576.47;5023511;28;20248;-43
2021/01/15 00:56:36;;;;;;;5.07;2.83;;;0.60;72.90;;;1.06;63.82;97577.41;5023066;28;20045;-43
2021/01/15 00:59:08;;;;;;;4.17;2.53;;;0.60;72.70;;;1.06;63.81;97572.16;5022251;28;20080;-43
2021/01/15 01:01:46;;;;;;;5.27;3.50;;;0.60;72.80;;;1.06;64.62;97577.41;5029204;28;20050;-42
2021/01/15 01:04:14;;;;;;;6.37;3.17;;;0.60;73.00;;;1.06;64.17;97578.22;5023546;28;20041;-43
2021/01/15 01:06:42;;;;;;;4.40;3.07;;;0.60;73.10;;;1.06;64.64;97572.16;5022843;28;20052;-42
2021/01/15 01:09:09;;;;;;;5.07;3.13;;;0.50;73.00;;;1.04;63.77;97574.88;5023278;28;20060;-42
2021/01/15 01:11:37;;;;;;;5.33;2.90;;;0.60;73.20;;;1.03;64.59;97569.72;5023229;28;20053;-42
2021/01/15 01:14:04;;;;;;;6.17;3.40;;;0.50;73.00;;;1.01;63.57;97579.47;5022860;28;20064;-43
2021/01/15 01:16:32;;;;;;;5.17;2.80;;;0.50;73.20;;;1.00;63.70;97572.56;5038265;28;20054;-44
2021/01/15 01:19:00;;;;;;;6.47;3.27;;;0.50;73.20;;;1.00;63.68;97581.28;5022907;28;20037;-43
2021/01/15 01:21:28;;;;;;;7.00;3.17;;;0.50;73.30;;;1.00;64.35;97576.03;5022997;28;20346;-41
2021/01/15 01:23:55;;;;;;;5.93;4.33;;;0.50;73.10;;;0.97;63.84;97577.09;5022940;28;20054;-42
2021/01/15 01:26:22;;;;;;;5.13;3.13;;;0.50;73.10;;;0.97;64.25;97587.56;5037690;28;20054;-43
2021/01/15 01:28:49;;;;;;;8.10;3.33;;;0.50;73.30;;;0.97;64.18;97584.94;5025707;28;20231;-43
2021/01/15 01:31:18;;;;;;;5.33;3.27;;;0.50;73.20;;;0.96;63.90;97583.25;5029369;28;20364;-42
2021/01/15 01:33:46;;;;;;;6.77;3.03;;;0.40;73.00;;;0.96;64.37;97587.66;5032671;28;20049;-42
2021/01/15 01:36:13;;;;;;;5.07;2.73;;;0.50;72.80;;;0.94;64.12;97585.16;5031294;28;20052;-42
2021/01/15 01:38:42;;;;;;;6.53;3.20;;;0.40;72.80;;;0.92;64.03;97589.66;5032911;28;20051;-41
2021/01/15 01:41:10;;;;;;;6.73;3.53;;;0.40;72.90;;;0.90;63.80;97594.16;5030643;28;20061;-43
2021/01/15 01:43:38;;;;;;;10.50;4.93;;;0.40;72.70;;;0.88;64.12;97596.03;5033566;28;20045;-42
2021/01/15 01:46:08;;;;;;;10.60;4.90;;;0.40;72.90;;;0.87;64.41;97598.75;5041106;28;20046;-42
2021/01/15 01:48:37;;;;;;;10.30;5.43;;;0.40;72.60;;;0.86;64.07;97597.94;5022553;28;20049;-41
2021/01/15 01:51:06;;;;;;;11.67;5.67;;;0.40;73.00;;;0.84;64.23;97598.97;5037316;28;20136;-42
2021/01/15 01:53:37;;;;;;;10.60;5.17;;;0.30;73.00;;;0.83;63.63;97605.97;5037722;28;20269;-43
2021/01/15 01:56:06;;;;;;;10.30;5.00;;;0.30;72.90;;;0.83;63.60;97611.22;5036220;28;20053;-43
2021/01/15 01:58:34;;;;;;;7.97;3.90;;;0.30;73.00;;;0.81;64.07;97607.03;5022302;28;20052;-43
2021/01/15 02:01:06;;;;;;;8.77;3.20;;;0.30;73.00;;;0.77;64.50;97614.25;5034854;28;20049;-43
2021/01/15 02:03:34;;;;;;;6.13;3.27;;;0.30;72.80;;;0.76;63.70;97617.84;5022640;28;20080;-44
2021/01/15 02:06:04;;;;;;;5.63;3.40;;;0.20;72.80;;;0.74;63.69;97615.31;5036910;28;20345;-43
2021/01/15 02:08:32;;;;;;;6.20;2.80;;;0.20;72.80;;;0.73;64.46;97615.41;5020590;28;20376;-43
2021/01/15 02:11:29;;;;;;;5.77;3.07;;;0.20;72.90;;;0.73;64.23;97620.63;5022667;28;20060;-44
2021/01/15 02:14:31;;;;;;;6.87;2.90;;;0.20;72.90;;;0.70;64.44;97615.59;5022484;28;20084;-42
2021/01/15 02:17:00;;;;;;;5.50;3.67;;;0.20;72.50;;;0.68;63.66;97626.19;5017846;28;20058;-42
2021/01/15 02:19:47;;;;;;;5.03;3.20;;;0.10;72.90;;;0.67;63.59;97632.34;5037186;28;20042;-44
2021/01/15 02:23:00;;;;;;;4.50;2.60;;;0.10;72.70;;;0.64;63.79;97634.34;5037335;28;20396;-42
2021/01/15 02:25:57;;;;;;;5.10;3.53;;;0.10;72.50;;;0.62;63.96;97629.22;5034369;28;20268;-45
2021/01/15 02:29:16;;;;;;;5.37;3.70;;;0.10;72.70;;;0.58;64.20;97620.72;5022051;28;20050;-42
2021/01/15 02:31:47;;;;;;;5.40;3.00;;;0.10;72.50;;;0.57;64.05;97626.88;5020635;28;20089;-42
2021/01/15 02:34:42;;;;;;;4.73;2.93;;;0.00;72.70;;;0.57;63.38;97637.34;5022016;28;20046;-43
2021/01/15 02:37:42;;;;;;;4.40;2.60;;;0.00;72.00;;;0.55;64.06;97639.25;5021973;28;20056;-42
2021/01/15 02:40:25;;;;;;;5.40;3.43;;;0.00;72.30;;;0.53;64.32;97650.75;5021849;28;20226;-42
2021/01/15 02:42:56;;;;;;;5.28;2.67;;;0.00;72.40;;;0.52;63.62;97638.59;5022510;28;20046;-44
2021/01/15 02:45:24;;;;;;;4.50;3.30;;;0.00;72.40;;;0.52;63.55;97641.22;5000450;28;20449;-42
2021/01/15 02:47:54;;;;;;;4.60;3.13;;;0.00;72.50;;;0.50;63.43;97645.72;5002453;28;20073;-42
2021/01/15 02:50:27;;;;;;;4.90;3.20;;;0.00;72.70;;;0.50;63.49;97633.44;5002174;28;20077;-42
2021/01/15 02:52:56;;;;;;;4.33;2.97;;;0.00;72.30;;;0.49;63.40;97631.78;5002220;28;20056;-43
2021/01/15 02:55:25;;;;;;;7.57;3.50;;;0.00;72.30;;;0.48;63.87;97632.69;5000265;28;20064;-42
2021/01/15 02:57:53;;;;;;;5.10;3.00;;;0.00;71.90;;;0.47;64.08;97638.06;4984871;28;20047;-43
2021/01/15 03:00:22;;;;;;;5.47;3.20;;;-0.10;72.20;;;0.46;63.10;97639.00;5002095;28;20059;-42
2021/01/15 03:02:54;;;;;;;4.73;2.60;;;-0.10;72.50;;;0.43;63.24;97642.66;5002213;28;20044;-44
2021/01/15 03:05:28;;;;;;;4.77;3.00;;;-0.10;72.70;;;0.42;63.78;97640.13;5001948;28;20049;-42
2021/01/15 03:07:59;;;;;;;5.15;3.13;;;-0.10;72.70;;;0.39;63.47;97644.63;5004841;28;20047;-42
2021/01/15 03:10:27;;;;;;;3.97;2.67;;;-0.10;72.70;;;0.38;63.96;97645.56;5004974;28;20061;-42
2021/01/15 03:12:57;;;;;;;6.57;3.30;;;-0.10;72.80;;;0.39;63.70;97651.66;5004892;28;20354;-42
2021/01/15 03:15:26;;;;;;;5.73;3.33;;;-0.10;72.90;;;0.38;63.36;97647.34;5004365;28;20054;-42
2021/01/15 03:17:55;;;;;;;5.87;3.27;;;-0.10;72.70;;;0.36;63.86;97652.66;5004415;28;20076;-42
2021/01/15 03:20:23;;;;;;;5.13;3.17;;;-0.20;72.80;;;0.35;63.41;97648.38;5004231;28;20104;-43
2021/01/15 03:22:51;;;;;;;5.43;3.47;;;-0.20;72.80;;;0.34;64.08;97658.94;5004690;28;20047;-42
2021/01/15 03:25:20;;;;;;;5.63;3.03;;;-0.20;72.70;;;0.32;63.75;97661.66;5005169;28;20046;-42
2021/01/15 03:27:53;;;;;;;7.17;4.57;;;-0.20;72.60;;;0.32;64.06;97663.44;5004388;28;20351;-42
2021/01/15 03:30:27;;;;;;;15.38;8.68;;;-0.20;72.80;;;0.30;64.04;97666.16;5005387;28;20054;-42
2021/01/15 03:32:57;;;;;;;10.82;6.65;;;-0.20;73.00;;;0.29;64.03;97666.25;5005468;28;20050;-42
2021/01/15 03:35:27;;;;;;;16.57;9.33;;;-0.20;72.80;;;0.27;64.01;97670.75;5004050;28;20073;-42
2021/01/15 03:37:59;;;;;;;26.57;12.90;;;-0.30;72.90;;;0.26;63.34;97674.31;5005506;28;20249;-42
2021/01/15 03:40:33;;;;;;;18.77;8.37;;;-0.20;72.80;;;0.24;64.02;97673.56;5004040;28;20249;-43
2021/01/15 03:43:11;;;;;;;20.50;8.63;;;-0.30;73.00;;;0.22;63.66;97675.44;5004295;28;20042;-42
2021/01/15 03:45:39;;;;;;;13.23;6.47;;;-0.30;72.80;;;0.21;64.08;97681.59;4988336;28;20056;-42
2021/01/15 03:48:08;;;;;;;11.40;6.63;;;-0.30;73.00;;;0.18;64.10;97680.84;5005102;28;20068;-42
2021/01/15 03:50:37;;;;;;;13.33;6.70;;;-0.30;72.90;;;0.16;64.04;97682.72;5004073;28;20050;-42
2021/01/15 03:53:04;;;;;;;8.40;5.20;;;-0.40;72.80;;;0.13;64.06;97685.53;5005092;28;20069;-42
2021/01/15 03:55:32;;;;;;;10.67;6.10;;;-0.40;73.00;;;0.14;63.99;97684.59;5004604;28;20050;-42
2021/01/15 03:58:00;;;;;;;11.70;5.77;;;-0.40;72.90;;;0.12;64.08;97688.28;5004944;28;20056;-43
2021/01/15 04:00:28;;;;;;;10.00;6.00;;;-0.40;72.70;;;0.11;63.93;97697.88;5004751;28;20046;-43
2021/01/15 04:02:56;;;;;;;10.70;5.57;;;-0.40;72.60;;;0.09;63.31;97699.75;5004899;28;20076;-43
2021/01/15 04:05:23;;;;;;;10.80;5.93;;;-0.40;72.50;;;0.07;63.64;97701.63;5004322;28;20046;-42
2021/01/15 04:07:50;;;;;;;16.73;7.07;;;-0.40;72.30;;;0.07;63.93;97703.41;5005175;28;20350;-42
2021/01/15 04:10:19;;;;;;;12.47;6.23;;;-0.40;72.30;;;0.04;63.55;97701.81;5003058;28;20057;-43
2021/01/15 04:12:47;;;;;;;8.47;5.90;;;-0.50;72.10;;;0.01;63.02;97707.25;5004719;28;20050;-44
2021/01/15 04:15:16;;;;;;;8.60;5.57;;;-0.50;72.20;;;-0.01;63.44;97709.94;5004112;28;20058;-42
2021/01/15 04:17:44;;;;;;;11.47;6.33;;;-0.50;72.50;;;-0.03;63.55;97706.59;5004323;28;20138;-42
2021/01/15 04:20:15;;;;;;;9.07;6.63;;;-0.50;72.30;;;-0.05;63.36;97711.06;5004354;28;20050;-42
2021/01/15 04:22:47;;;;;;;10.43;6.13;;;-0.60;72.20;;;-0.07;63.60;97710.31;5004449;28;20246;-42
2021/01/15 04:25:15;;;;;;;10.30;6.03;;;-0.60;72.20;;;-0.10;63.73;97714.91;5003911;28;20050;-42
2021/01/15 04:27:43;;;;;;;8.53;5.53;;;-0.60;72.50;;;-0.11;63.64;97715.84;5004317;28;20065;-42
2021/01/15 04:30:13;;;;;;;8.90;4.60;;;-0.60;72.50;;;-0.12;63.24;97719.38;5003421;28;20050;-42
2021/01/15 04:32:47;;;;;;;6.57;4.63;;;-0.70;72.40;;;-0.15;63.44;97722.22;5004498;28;20068;-44
2021/01/15 04:35:17;;;;;;;9.03;5.13;;;-0.70;72.30;;;-0.17;63.37;97726.69;5003715;28;20066;-43
2021/01/15 04:37:47;;;;;;;8.57;4.67;;;-0.70;72.30;;;-0.20;63.55;97733.75;5003201;28;20223;-42
2021/01/15 04:40:15;;;;;;;5.97;4.27;;;-0.80;72.10;;;-0.21;63.25;97736.50;5004029;28;20284;-42
2021/01/15 04:42:45;;;;;;;6.33;3.37;;;-0.80;72.30;;;-0.25;63.66;97735.84;5003990;28;20046;-42
2021/01/15 04:45:17;;;;;;;5.67;3.63;;;-0.80;72.20;;;-0.26;63.66;97736.75;5003513;28;20050;-42
2021/01/15 04:47:47;;;;;;;5.23;3.50;;;-0.80;72.20;;;-0.27;63.67;97736.84;5003864;28;20334;-42
2021/01/15 04:50:17;;;;;;;6.30;3.47;;;-0.80;72.20;;;-0.28;63.41;97741.25;5004645;28;20064;-42
2021/01/15 04:52:51;;;;;;;6.40;3.97;;;-0.80;72.20;;;-0.30;63.35;97737.88;5003843;28;20511;-42
2021/01/15 04:55:23;;;;;;;6.93;4.18;;;-0.90;71.90;;;-0.33;63.79;97737.22;5003397;28;20058;-42
2021/01/15 04:57:55;;;;;;;7.60;3.43;;;-0.90;72.20;;;-0.34;63.10;97748.63;5002452;28;20060;-42
2021/01/15 05:00:26;;;;;;;8.37;4.00;;;-0.90;72.40;;;-0.37;63.04;97739.16;5003535;28;20053;-42
2021/01/15 05:02:54;;;;;;;6.60;3.60;;;-0.90;72.30;;;-0.40;62.88;97747.22;4985331;28;20225;-42
2021/01/15 05:05:27;;;;;;;5.80;3.80;;;-1.00;72.20;;;-0.42;63.79;97746.47;5002262;28;20076;-42
2021/01/15 05:08:06;;;;;;;4.00;2.93;;;-1.00;72.20;;;-0.45;63.49;97750.06;5002310;28;20222;-43
2021/01/15 05:10:40;;;;;;;5.30;3.30;;;-1.00;72.00;;;-0.46;63.36;97752.81;5003506;28;20053;-43
2021/01/15 05:13:10;;;;;;;4.30;3.08;;;-1.00;72.00;;;-0.46;63.08;97755.41;5002315;28;20365;-45
2021/01/15 05:15:41;;;;;;;5.53;2.90;;;-1.10;72.00;;;-0.48;62.72;97762.50;5003021;28;20050;-43
2021/01/15 05:18:09;;;;;;;5.10;3.33;;;-1.10;72.00;;;-0.50;62.76;97759.97;5003780;28;20060;-42
2021/01/15 05:20:37;;;;;;;4.10;2.90;;;-1.10;72.00;;;-0.52;63.42;97761.00;5003202;28;20054;-44
2021/01/15 05:23:07;;;;;;;4.47;3.27;;;-1.10;71.90;;;-0.54;63.44;97766.31;5003328;28;20261;-42
2021/01/15 05:25:40;;;;;;;6.77;3.70;;;-1.10;72.00;;;-0.56;63.16;97762.97;5002826;28;20061;-42
2021/01/15 05:28:08;;;;;;;5.57;3.40;;;-1.10;71.80;;;-0.58;62.99;97771.81;5003026;28;20050;-42
2021/01/15 05:30:38;;;;;;;5.60;3.43;;;-1.10;71.90;;;-0.60;63.07;97764.91;5021014;23;20053;-47
2021/01/15 05:33:15;;;;;;;6.17;4.47;;;-1.10;71.80;;;-0.61;63.00;97784.13;5041849;28;20060;-51
2021/01/15 05:35:51;;;;;;;8.80;4.67;;;-1.20;71.40;;;-0.62;63.27;97786.81;5022011;28;20054;-49
2021/01/15 05:38:21;;;;;;;7.70;3.93;;;-1.20;71.40;;;-0.65;62.96;97784.41;5022879;28;20050;-49
2021/01/15 05:40:52;;;;;;;7.90;4.20;;;-1.20;71.50;;;-0.65;62.84;97789.63;5022709;28;20041;-48
2021/01/15 05:43:23;;;;;;;7.97;4.10;;;-1.20;71.30;;;-0.66;62.92;97793.16;5037335;28;20071;-47
2021/01/15 05:46:11;;;;;;;7.70;3.93;;;-1.20;71.30;;;-0.68;63.04;97795.91;5021976;28;20060;-49
2021/01/15 05:48:47;;;;;;;7.13;4.37;;;-1.20;71.00;;;-0.67;63.04;97797.56;5022793;28;20046;-48
2021/01/15 05:51:31;;;;;;;6.80;4.10;;;-1.20;71.10;;;-0.69;62.69;97799.41;5022568;28;20050;-48
2021/01/15 05:54:00;;;;;;;8.00;4.40;;;-1.20;70.90;;;-0.69;62.98;97799.41;5022594;28;20056;-49
2021/01/15 05:56:38;;;;;;;7.93;4.00;;;-1.20;71.30;;;-0.68;63.02;97808.09;5021760;28;20053;-48
2021/01/15 05:59:17;;;;;;;7.70;4.67;;;-1.20;71.10;;;-0.70;63.18;97816.06;5037831;28;20050;-49
2021/01/15 06:01:59;;;;;;;6.23;4.23;;;-1.20;71.10;;;-0.71;63.67;97816.97;5034242;28;20060;-48
2021/01/15 06:04:40;;;;;;;6.73;4.93;;;-1.20;70.90;;;-0.70;63.29;97817.81;5022432;28;20345;-47
2021/01/15 06:07:13;;;;;;;12.40;6.03;;;-1.20;71.10;;;-0.71;62.93;97826.59;5021910;28;20060;-48
2021/01/15 06:09:43;;;;;;;20.03;8.17;;;-1.20;71.30;;;-0.72;62.67;97838.81;5022409;28;20046;-47
2021/01/15 06:12:17;;;;;;;15.93;6.47;;;-1.20;71.30;;;-0.74;62.88;97837.22;5022062;28;20500;-49
2021/01/15 06:14:49;;;;;;;;;;;-1.30;71.30;;;-0.78;62.64;97836.53;5022063;28;20060;-48
2021/01/15 06:17:20;;;;;;;9.43;5.73;;;-1.30;70.30;;;-0.80;63.11;97847.06;5036699;28;19931;-50
2021/01/15 06:19:49;;;;;;;8.97;5.67;;;-1.30;71.30;;;-0.81;63.18;97855.88;5022148;28;20068;-48
2021/01/15 06:22:44;;;;;;;6.80;4.27;;;-1.30;71.30;;;-0.81;62.90;97865.50;5021845;28;20050;-49
2021/01/15 06:25:33;;;;;;;8.73;5.13;;;-1.30;71.30;;;-0.82;62.90;97869.00;5036560;28;20046;-46
2021/01/15 06:28:09;;;;;;;9.50;5.50;;;-1.30;71.40;;;-0.83;63.25;97868.19;5022095;28;20049;-47
2021/01/15 06:30:37;;;;;;;7.90;4.83;;;-1.30;71.40;;;-0.83;63.13;97869.97;5021321;28;20049;-49
2021/01/15 06:33:11;;;;;;;8.30;5.43;;;-1.30;71.50;;;-0.84;62.80;97873.50;5022121;28;20276;-48
2021/01/15 06:35:44;;;;;;;7.97;4.75;;;-1.30;71.60;;;-0.84;63.38;97882.16;5020981;28;20081;-47
2021/01/15 06:38:16;;;;;;;8.43;5.07;;;-1.30;71.40;;;-0.84;63.30;97882.16;5021961;28;20260;-47
2021/01/15 06:40:49;;;;;;;9.50;5.33;;;-1.30;71.50;;;-0.85;63.18;97884.88;5022852;28;20053;-50
2021/01/15 06:43:30;;;;;;;8.15;5.72;;;-1.30;71.40;;;-0.86;63.05;97889.25;5040358;28;20050;-50
2021/01/15 06:46:03;;;;;;;9.43;6.13;;;-1.40;71.20;;;-0.88;63.20;97891.09;5025566;28;20053;-50
2021/01/15 06:48:36;;;;;;;7.60;5.32;;;-1.40;71.30;;;-0.90;62.81;97892.97;5025976;28;20045;-47
2021/01/15 06:51:06;;;;;;;8.23;5.10;;;-1.40;71.70;;;-0.90;62.68;97905.19;5026127;28;20059;-48
2021/01/15 06:53:38;;;;;;;7.93;4.93;;;-1.40;71.40;;;-0.93;62.75;97903.59;5025370;28;20322;-47
2021/01/15 06:56:07;;;;;;;9.00;5.63;;;-1.50;71.60;;;-0.92;63.11;97907.06;5025446;28;20249;-48
2021/01/15 06:58:43;;;;;;;10.57;6.87;;;-1.50;71.70;;;-0.94;63.27;97903.69;5025270;28;20053;-48
2021/01/15 07:01:44;;;;;;;14.33;7.10;;;-1.50;71.70;;;-0.96;63.15;97901.13;5024348;28;20045;-47
2021/01/15 07:04:28;;;;;;;15.97;7.57;;;-1.50;71.70;;;-0.96;62.98;97914.22;5024922;28;20052;-47
2021/01/15 07:07:17;;;;;;;13.98;7.93;;;-1.50;71.70;;;-0.99;63.13;97914.38;5023603;28;20342;-48
2021/01/15 07:09:47;;;;;;;15.20;6.33;;;-1.50;71.60;;;-1.01;63.33;97918.84;5035181;28;20245;-47
2021/01/15 07:12:17;;;;;;;20.43;7.83;;;-1.50;72.00;;;-1.01;63.26;97921.44;5065464;28;20438;-48
2021/01/15 07:14:56;;;;;;;14.17;7.40;;;-1.50;72.00;;;-1.01;62.94;97917.09;5064856;28;20045;-48
2021/01/15 07:17:34;;;;;;;15.00;7.70;;;-1.50;72.00;;;-1.02;62.88;97917.16;5065127;28;20347;-49
2021/01/15 07:20:08;;;;;;;11.50;6.97;;;-1.50;72.00;;;-1.02;63.41;97922.38;5080472;28;20047;-48
2021/01/15 07:22:47;;;;;;;17.70;8.88;;;-1.50;72.30;;;-1.04;63.28;97924.25;5064920;28;20051;-48
2021/01/15 07:25:15;;;;;;;13.30;7.57;;;-1.50;72.40;;;-1.04;62.87;97919.00;5063299;28;20053;-47
2021/01/15 07:27:43;;;;;;;9.87;6.20;;;-1.50;72.40;;;-1.03;62.98;97923.28;5063273;28;20059;-48
2021/01/15 07:30:26;;;;;;;14.30;6.20;;;-1.50;72.60;;;-1.03;63.10;97924.16;5064829;28;20056;-48
2021/01/15 07:32:58;;;;;;;12.10;6.60;;;-1.50;72.40;;;-1.04;63.08;97932.06;5080429;28;20243;-47
2021/01/15 07:35:29;;;;;;;10.10;6.22;;;-1.50;72.50;;;-1.03;63.39;97937.22;5063996;28;20059;-47
2021/01/15 07:38:16;;;;;;;10.97;6.10;;;-1.50;72.70;;;-1.02;63.50;97938.06;5064347;28;20060;-47
2021/01/15 07:40:44;;;;;;;12.30;6.53;;;-1.50;72.50;;;-1.02;63.42;97940.69;5064172;28;20232;-48
2021/01/15 07:43:33;;;;;;;10.53;6.47;;;-1.50;72.50;;;-1.00;63.80;97944.88;5064764;28;20362;-49
2021/01/15 07:46:04;;;;;;;10.33;6.27;;;-1.50;72.50;;;-1.00;63.60;97946.66;5045518;28;20059;-48
2021/01/15 07:48:32;;;;;;;12.27;6.57;;;-1.50;72.70;;;-0.98;63.92;97954.44;5044577;28;20050;-47
2021/01/15 07:51:11;;;;;;;11.80;6.63;;;-1.40;72.70;;;-0.99;63.80;97956.19;5044595;28;20049;-49
2021/01/15 07:53:41;;;;;;;11.33;6.20;;;-1.40;72.70;;;-0.99;63.70;97961.41;5043502;28;20371;-47
2021/01/15 07:56:10;;;;;;;11.70;6.43;;;-1.40;72.80;;;-0.97;63.81;97970.00;5044071;28;20045;-50
2021/01/15 07:58:38;;;;;;;10.53;6.67;;;-1.40;72.90;;;-0.95;63.28;97965.56;5044457;28;20045;-48
2021/01/15 08:01:14;;;;;;;9.03;6.53;;;-1.40;72.80;;;-0.94;63.33;97977.69;5043106;28;20049;-49
2021/01/15 08:03:54;;;;;;;11.03;6.43;;;-1.40;73.00;;;-0.93;63.90;97975.91;5041754;28;20060;-47
2021/01/15 08:06:23;;;;;;;11.43;6.13;;;-1.40;73.00;;;-0.93;63.54;97983.75;5043865;28;20049;-47
2021/01/15 08:09:00;;;;;;;10.77;6.33;;;-1.40;74.00;;;-0.92;63.82;97983.69;5044187;28;20341;-50
2021/01/15 08:11:35;;;;;;;9.90;6.37;;;-1.40;73.20;;;-0.91;63.66;97993.22;5055178;28;20056;-49
2021/01/15 08:14:13;;;;;;;9.17;5.87;;;-1.40;73.20;;;-0.90;63.39;98000.13;5063930;28;20045;-48
2021/01/15 08:16:45;;;;;;;13.40;7.10;;;-1.30;73.20;;;-0.90;63.62;98000.13;5023292;28;20261;-46
2021/01/15 08:19:15;;;;;;;12.03;6.83;;;-1.30;73.30;;;-0.87;63.96;98010.44;5022478;28;20060;-48
2021/01/15 08:21:45;;;;;;;9.47;6.53;;;-1.30;73.20;;;-0.85;63.24;98010.38;5024167;28;20042;-47
2021/01/15 08:24:18;;;;;;;11.40;6.90;;;-1.30;73.10;;;-0.81;64.08;98020.56;5024048;28;20045;-46
2021/01/15 08:26:50;;;;;;;11.90;6.60;;;-1.20;72.80;;;-0.80;63.61;98022.25;5023383;28;20050;-50
2021/01/15 08:29:23;;;;;;;10.27;6.37;;;-1.20;72.70;;;-0.77;63.92;98028.25;5022814;28;20210;-48
2021/01/15 08:31:58;;;;;;;14.07;7.67;;;-1.20;72.80;;;-0.76;63.90;98030.78;5042784;28;20057;-46
2021/01/15 08:34:35;;;;;;;10.00;6.20;;;-1.20;72.80;;;-0.75;63.39;98029.03;5041374;28;20051;-51
2021/01/15 08:37:09;;;;;;;11.07;6.27;;;-1.20;72.70;;;-0.74;63.30;98031.53;5043302;28;20045;-46
2021/01/15 08:39:47;;;;;;;10.98;6.85;;;-1.10;72.80;;;-0.72;63.88;98037.53;5042271;28;20057;-50
2021/01/15 08:42:16;;;;;;;12.57;6.83;;;-1.10;72.50;;;-0.72;63.83;98042.75;5043130;28;20049;-47
2021/01/15 08:44:47;;;;;;;15.33;8.70;;;-1.20;72.80;;;-0.73;63.25;98043.69;5043154;28;20245;-48
2021/01/15 08:47:21;;;;;;;13.93;8.07;;;-1.10;72.70;;;-0.71;63.25;98051.47;5042561;28;20049;-51
2021/01/15 08:49:54;;;;;;;15.70;8.03;;;-1.10;72.90;;;-0.69;63.69;98049.63;5043498;28;20045;-47
2021/01/15 08:52:32;;;;;;;15.73;8.73;;;-1.10;72.80;;;-0.69;63.85;98058.28;5042977;28;20075;-48
2021/01/15 08:55:03;;;;;;;18.83;9.50;;;-1.10;72.60;;;-0.70;63.79;98059.22;5041865;28;20063;-49
2021/01/15 08:57:31;;;;;;;15.23;9.07;;;-1.10;72.80;;;-0.71;63.92;98061.94;5043394;28;20248;-46
2021/01/15 09:00:16;;;;;;;13.33;8.07;;;-1.10;72.60;;;-0.73;63.69;98072.47;5043270;28;20045;-49
2021/01/15 09:02:46;;;;;;;13.77;8.40;;;-1.10;72.50;;;-0.72;63.78;98074.13;5040875;28;20047;-48
2021/01/15 09:05:41;;;;;;;14.80;8.33;;;-1.10;72.90;;;-0.68;63.77;98082.66;5041455;28;20046;-49
2021/01/15 09:08:15;;;;;;;15.20;8.70;;;-1.10;72.80;;;-0.67;63.72;98079.13;5043129;28;20051;-47
2021/01/15 09:10:48;;;;;;;17.13;9.15;;;-1.00;72.90;;;-0.64;63.68;98085.06;5041958;28;20049;-46
2021/01/15 09:13:18;;;;;;;14.27;9.17;;;-1.00;72.80;;;-0.62;63.79;98088.44;5037217;28;20079;-46
2021/01/15 09:15:50;;;;;;;15.23;8.70;;;-1.00;72.80;;;-0.61;63.75;98089.28;5049967;28;20053;-46
2021/01/15 09:18:24;;;;;;;15.47;9.47;;;-0.90;73.00;;;-0.60;64.29;98090.97;5043046;28;20041;-47
2021/01/15 09:20:51;;;;;;;15.50;8.45;;;-0.90;72.90;;;-0.61;63.93;98091.88;5036107;28;20049;-48
2021/01/15 09:23:19;;;;;;;15.27;9.10;;;-0.90;73.00;;;-0.65;64.29;98093.81;5035279;28;20115;-47
2021/01/15 09:25:46;;;;;;;15.00;9.17;;;-0.90;72.90;;;-0.65;64.02;98095.59;5056522;28;20049;-49
2021/01/15 09:28:14;;;;;;;14.47;7.90;;;-0.90;73.00;;;-0.62;63.84;98101.50;5041481;28;20357;-46
2021/01/15 09:30:41;;;;;;;19.27;10.57;;;-0.90;72.90;;;-0.56;64.42;98099.47;5030664;28;20064;-49
2021/01/15 09:33:09;;;;;;;18.60;12.03;;;-0.90;72.70;;;-0.52;64.25;98109.72;5036100;28;20575;-46
2021/01/15 09:35:36;;;;;;;20.80;10.93;;;-0.80;72.80;;;-0.47;63.97;98117.31;5034118;28;20156;-47
2021/01/15 09:38:04;;;;;;;17.73;9.43;;;-0.80;72.60;;;-0.47;63.25;98106.84;5040583;28;20064;-47
2021/01/15 09:40:31;;;;;;;17.63;8.53;;;-0.80;72.70;;;-0.52;63.83;98111.50;5041715;28;20045;-48
2021/01/15 09:43:01;;;;;;;14.80;7.77;;;-0.80;72.40;;;-0.50;64.03;98114.88;5035198;28;20051;-46
2021/01/15 09:45:28;;;;;;;22.97;10.43;;;-0.80;72.20;;;-0.49;63.88;98122.63;5040287;28;20037;-48
2021/01/15 09:47:56;;;;;;;25.60;11.17;;;-0.80;72.40;;;-0.44;64.44;98130.25;5035280;28;20041;-47
2021/01/15 09:50:23;;;;;;;17.13;9.37;;;-0.70;73.40;;;-0.41;64.06;98125.69;5041168;28;20272;-47
2021/01/15 09:52:50;;;;;;;13.73;7.93;;;-0.70;72.50;;;-0.40;64.13;98124.75;5039373;28;20052;-49
2021/01/15 09:55:18;;;;;;;15.93;7.97;;;-0.80;71.80;;;-0.42;63.49;98128.38;5040762;28;20379;-47
2021/01/15 09:57:48;;;;;;;16.20;8.90;;;-0.70;72.10;;;-0.41;63.65;98140.53;5039386;28;20059;-46
2021/01/15 10:00:17;;;;;;;25.07;11.07;;;-0.70;72.30;;;-0.42;64.13;98137.06;5039883;28;20083;-48
2021/01/15 10:02:44;;;;;;;18.33;9.23;;;-0.70;72.60;;;-0.40;63.83;98140.44;5031669;28;20321;-48
2021/01/15 10:05:12;;;;;;;13.83;7.57;;;-0.70;72.30;;;-0.42;64.14;98149.31;5041154;28;20049;-50
2021/01/15 10:07:39;;;;;;;17.10;9.60;;;-0.70;72.10;;;-0.42;63.51;98141.47;5041159;28;20057;-47
2021/01/15 10:10:08;;;;;;;15.07;8.87;;;-0.70;72.30;;;-0.38;64.26;98148.22;5041822;28;20053;-50
2021/01/15 10:12:35;;;;;;;12.43;7.70;;;-0.60;72.30;;;-0.37;64.15;98144.66;5040300;28;20055;-46
2021/01/15 10:15:03;;;;;;;15.00;7.77;;;-0.60;71.60;;;-0.36;63.47;98150.78;5038340;28;20061;-47
2021/01/15 10:17:31;;;;;;;15.10;7.97;;;-0.70;72.40;;;-0.41;64.05;98151.00;5041334;28;20049;-46
2021/01/15 10:19:58;;;;;;;15.33;8.57;;;-0.80;72.40;;;-0.39;64.01;98154.38;5037421;28;20034;-46
2021/01/15 10:22:30;;;;;;;22.00;11.03;;;-0.70;72.40;;;-0.33;64.22;98155.81;5040365;28;20033;-46
2021/01/15 10:24:57;;;;;;;15.87;8.33;;;-0.70;72.80;;;-0.33;64.10;98147.97;5040797;28;20054;-47
2021/01/15 10:27:25;;;;;;;12.83;8.10;;;-0.70;72.00;;;-0.30;63.94;98161.75;5041100;28;20033;-46
2021/01/15 10:29:52;;;;;;;14.77;8.43;;;-0.70;72.50;;;-0.35;63.19;98157.69;5040717;28;20052;-47
2021/01/15 10:32:19;;;;;;;13.50;8.60;;;-0.70;72.00;;;-0.41;63.89;98164.06;5041100;28;20049;-47
2021/01/15 10:34:47;;;;;;;14.83;9.17;;;-0.80;71.90;;;-0.43;63.75;98160.69;5033530;28;20230;-47
2021/01/15 10:37:14;;;;;;;12.87;7.83;;;-0.80;72.20;;;-0.49;63.55;98159.25;5037496;28;20045;-47
2021/01/15 10:39:42;;;;;;;15.50;9.10;;;-0.90;73.00;;;-0.44;63.52;98161.63;5041369;28;20237;-48
2021/01/15 10:42:09;;;;;;;14.33;9.00;;;-0.80;72.90;;;-0.40;64.07;98158.78;5040542;28;20075;-47